Last 24 Hours

Red Mountain

10 Minute Data | America/Los_Angeles
as of 5/10/26 8:18 AM PDT
Date & Time Temp (°F) Dew Pt (°F) RH (%) Wind Spd (mph) Wind Dir (°) Wind Gust (mph) Wind Gst Dir (°) Daily Max Temp (°F) Daily Min Temp (°F)
5/10/26 - 0810 78.3 18.5 11 1.0 ESE | 118 2.6 ESE | 102 78.6 64.2
5/10/26 - 0800 77.4 14.9 9 1.4 NNE | 31 2.8 NNE | 27 78.3 64.2
5/10/26 - 0750 76.7 10.0 8 2.0 NNE | 33 3.6 NNE | 26 77.1 64.2
5/10/26 - 0740 76.1 6.8 7 2.4 NNE | 19 3.3 N | 5 76.8 64.2
5/10/26 - 0730 75.3 2.1 6 3.1 N | 2 4.1 N | 0 75.5 64.2
5/10/26 - 0720 75.0 5.9 7 2.9 NNE | 14 3.8 NNE | 13 75.1 64.2
5/10/26 - 0710 74.4 6.9 7 4.0 NNE | 31 4.7 NNE | 32 74.9 64.2
5/10/26 - 0700 73.6 8.6 8 4.2 NNE | 32 4.8 NNE | 33 74.0 64.2
5/10/26 - 0650 72.7 7.5 8 4.3 NNE | 27 4.8 NNE | 28 73.6 64.2
5/10/26 - 0640 71.6 13.4 11 1.9 NNE | 22 4.4 NE | 37 73.6 64.2
5/10/26 - 0630 71.8 12.7 10 2.7 NE | 40 5.2 NNE | 30 73.6 64.2
5/10/26 - 0620 71.7 11.1 10 2.6 N | 9 5.0 NE | 34 73.6 64.2
5/10/26 - 0610 71.0 10.2 9 4.8 N | 358 6.0 N | 10 73.6 64.2
5/10/26 - 0600 71.7 10.2 9 6.1 NNW | 345 7.2 N | 350 73.6 64.2
5/10/26 - 0550 73.3 2.9 6 6.4 NNW | 346 7.6 NW | 326 73.6 64.2
5/10/26 - 0540 72.7 5.9 7 6.9 N | 355 7.5 N | 0 73.4 64.2
5/10/26 - 0530 71.8 7.3 8 5.6 N | 350 6.5 NNW | 341 71.8 64.2
5/10/26 - 0520 70.9 7.5 8 7.2 N | 359 9.5 N | 0 71.6 64.2
5/10/26 - 0510 70.5 19.2 15 5.1 N | 352 7.9 N | 352 71.2 64.2
5/10/26 - 0500 68.4 28.0 24 5.4 NNW | 347 7.7 NNW | 348 70.4 64.2
5/10/26 - 0450 68.8 31.6 25 6.4 N | 350 7.2 N | 353 69.3 64.2
5/10/26 - 0440 69.1 28.8 22 5.8 NNW | 328 6.7 NNW | 346 69.3 64.2
5/10/26 - 0430 68.2 32.2 26 6.2 NNW | 344 7.2 NNW | 347 68.9 64.2
5/10/26 - 0420 67.1 37.6 34 5.2 NNW | 344 5.9 NW | 326 68.6 64.2
5/10/26 - 0410 68.3 32.2 26 5.1 NNW | 329 5.9 NNW | 332 68.6 64.2
5/10/26 - 0400 67.6 34.4 29 6.2 NNW | 332 7.6 NNW | 339 68.6 64.2
5/10/26 - 0350 66.8 39.7 37 4.1 NW | 320 6.2 NNW | 333 68.6 64.2
5/10/26 - 0340 67.0 38.7 35 6.4 NNW | 334 7.9 NNW | 339 68.6 64.2
5/10/26 - 0330 67.6 37.4 33 6.8 NNW | 328 8.0 NW | 314 68.6 64.2
5/10/26 - 0320 68.2 34.2 28 7.0 NW | 324 8.3 NW | 322 68.6 64.2
5/10/26 - 0310 67.5 37.3 33 6.1 NW | 322 6.9 NW | 316 68.6 64.2
5/10/26 - 0300 68.0 35.0 30 6.7 NW | 316 7.5 NW | 316 68.6 64.2
5/10/26 - 0250 67.8 37.5 33 5.7 NNW | 327 7.2 NNW | 338 68.6 64.2
5/10/26 - 0240 68.0 35.4 30 4.9 NW | 325 5.6 NW | 322 68.4 64.2
5/10/26 - 0230 67.6 37.6 33 4.9 NNW | 336 5.5 N | 349 68.1 64.2
5/10/26 - 0220 67.1 39.8 37 5.3 NNW | 341 5.9 NNW | 340 67.7 64.2
5/10/26 - 0210 66.4 43.4 43 5.4 N | 349 6.3 NNW | 340 67.4 64.2
5/10/26 - 0200 66.2 44.4 45 4.8 N | 352 5.8 N | 0 67.4 64.2
5/10/26 - 0150 67.1 42.3 41 4.3 N | 352 5.6 NNW | 347 67.4 64.2
5/10/26 - 0140 66.5 43.3 43 4.2 N | 0 4.9 N | 7 67.3 64.2
5/10/26 - 0130 65.1 46.8 51 4.6 N | 356 5.6 N | 0 65.3 64.2
5/10/26 - 0120 64.7 46.6 52 4.6 NNW | 346 5.6 NNW | 343 64.9 64.2
5/10/26 - 0110 64.4 46.0 51 5.0 NNW | 348 5.9 N | 354 64.6 64.2
5/10/26 - 0100 64.4 46.6 52 5.5 NNW | 347 6.4 N | 354 76.3 62.2
5/10/26 - 0050 64.1 44.5 49 5.9 NNW | 346 8.0 NNW | 342 76.3 62.2
5/10/26 - 0040 63.9 42.6 46 6.3 NNW | 342 7.5 NNW | 337 76.3 62.2
5/10/26 - 0030 63.7 39.9 41 7.0 NNW | 338 7.9 NNW | 337 76.3 62.2
5/10/26 - 0020 63.5 39.0 40 7.9 NNW | 333 9.4 NNW | 328 76.3 62.2
5/10/26 - 0010 63.2 40.5 43 8.6 NNW | 335 9.9 NNW | 340 76.3 62.2
5/10/26 - 0000 63.2 42.5 47 8.2 NNW | 333 9.7 NNW | 339 76.3 62.2
5/9/26 - 2350 63.1 43.6 49 9.2 NNW | 338 10.4 NNW | 336 76.3 62.2
5/9/26 - 2340 63.3 43.4 48 8.6 NNW | 332 9.9 NNW | 333 76.3 62.2
5/9/26 - 2330 63.5 42.4 46 7.3 NNW | 334 8.6 NNW | 329 76.3 62.2
5/9/26 - 2320 63.3 41.7 45 7.6 NNW | 338 9.1 NNW | 329 76.3 62.2
5/9/26 - 2310 63.0 42.9 48 7.0 NNW | 346 8.4 NNW | 344 76.3 62.2
5/9/26 - 2300 63.0 43.0 48 6.9 N | 352 8.1 NNW | 348 76.3 62.2
5/9/26 - 2250 63.4 41.6 45 7.0 NNW | 342 8.8 NNW | 344 76.3 62.2
5/9/26 - 2240 63.4 41.5 45 7.6 NNW | 334 8.9 NNW | 336 76.3 62.2
5/9/26 - 2230 63.3 42.6 47 7.9 NNW | 342 9.3 NNW | 333 76.3 62.2
5/9/26 - 2220 63.5 41.2 44 8.4 NNW | 340 9.5 NNW | 336 76.3 62.2
5/9/26 - 2210 63.6 41.4 44 8.4 NNW | 335 9.3 NNW | 329 76.3 62.2
5/9/26 - 2200 63.5 42.7 47 8.6 NNW | 331 9.5 NNW | 332 76.3 62.2
5/9/26 - 2150 63.5 42.9 47 9.4 NNW | 334 10.1 NNW | 329 76.3 62.2
5/9/26 - 2140 63.1 44.5 51 8.9 NNW | 331 10.7 NNW | 334 76.3 62.2
5/9/26 - 2130 63.0 44.6 51 9.6 NNW | 330 10.8 NNW | 329 76.3 62.2
5/9/26 - 2120 63.0 44.5 51 9.8 NNW | 329 10.7 NNW | 327 76.3 62.2
5/9/26 - 2110 63.0 43.6 49 9.0 NNW | 328 9.7 NNW | 330 76.3 62.2
5/9/26 - 2100 63.1 43.3 48 8.4 NNW | 333 9.0 NNW | 330 76.3 62.2
5/9/26 - 2050 63.4 43.2 48 8.3 NNW | 330 9.1 NW | 326 76.3 62.2
5/9/26 - 2040 63.5 43.1 47 9.2 NW | 319 10.2 NW | 318 76.3 62.2
5/9/26 - 2030 63.9 42.7 46 9.9 NW | 314 11.3 NW | 310 76.3 62.2
5/9/26 - 2020 64.3 42.7 45 10.1 NW | 318 11.4 NW | 315 76.3 62.2
5/9/26 - 2010 64.8 43.8 46 10.5 NW | 322 11.5 NNW | 327 76.3 62.2
5/9/26 - 2000 65.1 44.8 48 9.9 NW | 324 11.3 NW | 322 76.3 62.2
5/9/26 - 1950 65.4 45.3 48 10.5 NW | 318 12.7 NW | 310 76.3 62.2
5/9/26 - 1940 65.9 45.7 48 12.0 NW | 315 13.6 NW | 317 76.3 62.2
5/9/26 - 1930 66.3 45.5 47 10.5 NW | 318 12.6 NW | 315 76.3 62.2
5/9/26 - 1920 66.8 46.1 47 10.0 NW | 319 12.3 NW | 320 76.3 62.2
5/9/26 - 1910 67.1 46.2 47 8.8 NW | 315 10.9 NW | 315 76.3 62.2
5/9/26 - 1900 67.6 46.4 47 7.3 NW | 306 10.2 NW | 314 76.3 62.2
5/9/26 - 1850 67.8 46.0 46 7.2 WNW | 289 10.5 WNW | 292 76.3 62.2
5/9/26 - 1840 67.9 46.2 46 8.5 WNW | 291 11.8 WNW | 294 76.3 62.2
5/9/26 - 1830 67.9 45.9 45 7.5 W | 275 12.8 WNW | 287 76.3 62.2
5/9/26 - 1820 68.1 45.5 44 8.4 W | 266 12.3 W | 272 76.3 62.2
5/9/26 - 1810 68.8 45.6 43 8.4 W | 266 11.8 WSW | 256 76.3 62.2
5/9/26 - 1800 69.1 45.1 42 9.3 W | 264 12.4 W | 268 76.3 62.2
5/9/26 - 1750 69.6 45.0 41 9.4 W | 265 12.8 W | 266 76.3 62.2
5/9/26 - 1740 69.8 44.7 40 9.7 WSW | 257 13.4 WSW | 243 76.3 62.2
5/9/26 - 1730 70.2 44.5 40 10.6 WSW | 245 14.5 SW | 231 76.3 62.2
5/9/26 - 1720 70.4 44.4 39 11.0 WSW | 253 16.2 WSW | 256 76.3 62.2
5/9/26 - 1710 70.4 44.3 39 10.8 WSW | 244 16.3 WSW | 245 76.3 62.2
5/9/26 - 1700 71.0 44.3 38 11.1 WSW | 239 16.4 WSW | 247 76.3 62.2
5/9/26 - 1650 71.9 44.5 37 10.1 SW | 234 17.6 WSW | 247 76.3 62.2
5/9/26 - 1640 72.4 43.5 35 12.2 WSW | 241 19.2 SW | 235 76.3 62.2
5/9/26 - 1630 72.6 42.5 34 11.8 WSW | 247 17.5 SW | 222 76.3 62.2
5/9/26 - 1620 73.6 42.5 33 11.7 WSW | 248 19.1 SW | 236 76.3 62.2
5/9/26 - 1610 74.3 43.8 34 10.3 SW | 234 19.2 SW | 228 76.3 62.2
5/9/26 - 1600 73.8 43.2 33 10.9 SW | 235 18.3 WSW | 238 76.3 62.2
5/9/26 - 1550 74.0 43.4 33 10.2 SW | 234 18.0 SW | 214 76.3 62.2
5/9/26 - 1540 73.9 43.1 33 12.5 WSW | 239 18.1 WSW | 254 76.3 62.2
5/9/26 - 1530 73.8 42.9 33 10.9 WSW | 242 19.0 WSW | 245 76.3 62.2
5/9/26 - 1520 75.0 43.2 32 9.9 SW | 236 16.4 SW | 215 76.3 62.2
5/9/26 - 1510 74.4 41.9 31 10.8 WSW | 241 17.6 WSW | 248 75.5 62.2
5/9/26 - 1500 74.6 42.1 31 11.8 WSW | 244 17.8 WSW | 243 75.5 62.2
5/9/26 - 1450 74.0 42.0 32 11.7 WSW | 251 17.7 SW | 231 75.2 62.2
5/9/26 - 1440 73.5 42.0 32 10.9 W | 259 17.5 W | 259 75.0 62.2
5/9/26 - 1430 73.2 42.1 33 9.0 WSW | 238 16.1 W | 262 75.0 62.2
5/9/26 - 1420 72.5 42.5 34 12.0 SW | 233 18.6 WSW | 249 75.0 62.2
5/9/26 - 1410 73.5 42.8 33 12.6 WSW | 244 19.7 WSW | 256 75.0 62.2
5/9/26 - 1400 72.9 42.7 34 11.1 WSW | 240 19.6 WSW | 250 74.3 62.2
5/9/26 - 1350 71.8 42.8 35 12.3 W | 272 18.4 W | 268 73.1 62.2
5/9/26 - 1340 72.2 43.1 35 12.7 W | 273 21.3 WSW | 257 73.1 62.2
5/9/26 - 1330 71.8 43.0 35 11.7 WNW | 284 18.0 WNW | 283 73.1 62.2
5/9/26 - 1320 72.1 42.8 35 11.8 W | 277 19.1 W | 264 73.1 62.2
5/9/26 - 1310 71.6 43.0 36 12.8 W | 272 19.0 W | 280 72.7 62.2
5/9/26 - 1300 71.5 42.5 35 11.8 W | 268 17.2 WSW | 252 72.7 62.2
5/9/26 - 1250 71.7 43.0 35 10.1 W | 276 19.2 WNW | 287 72.7 62.2
5/9/26 - 1240 71.1 43.9 38 9.4 W | 276 14.8 WSW | 251 71.7 62.2
5/9/26 - 1230 71.0 44.1 38 8.9 W | 267 14.5 WSW | 240 71.5 62.2
5/9/26 - 1220 70.5 44.6 39 8.8 W | 269 14.9 W | 262 71.4 62.2
5/9/26 - 1210 70.0 45.2 41 9.8 W | 262 15.1 WSW | 257 70.9 62.2
5/9/26 - 1200 69.9 46.3 43 8.3 W | 263 15.4 WSW | 252 70.7 62.2
5/9/26 - 1150 69.4 46.6 44 9.3 W | 267 14.2 W | 263 70.1 62.2
5/9/26 - 1140 69.6 46.2 43 8.6 WSW | 254 13.4 WSW | 258 70.1 62.2
5/9/26 - 1130 69.3 44.8 41 8.6 WSW | 253 14.2 W | 267 70.1 62.2
5/9/26 - 1120 68.8 43.4 40 7.2 W | 259 11.8 WSW | 247 70.0 62.2
5/9/26 - 1110 69.0 42.7 39 8.4 WSW | 250 13.0 W | 262 70.0 62.2
5/9/26 - 1100 69.3 42.6 38 7.5 WSW | 251 11.1 WSW | 249 70.0 62.2
5/9/26 - 1050 68.8 40.3 36 5.2 WSW | 246 10.8 W | 273 70.0 62.2
5/9/26 - 1040 68.5 41.0 37 6.3 W | 260 9.6 W | 266 70.0 62.2
5/9/26 - 1030 67.9 42.3 39 6.4 WSW | 258 9.9 W | 266 70.0 62.2
5/9/26 - 1020 67.7 44.0 42 6.3 WSW | 252 10.3 SW | 233 70.0 62.2
5/9/26 - 1010 67.2 42.4 40 5.7 WSW | 257 8.7 W | 259 70.0 62.2
5/9/26 - 1000 67.0 42.5 41 5.2 WSW | 256 8.9 WSW | 245 70.0 62.2
5/9/26 - 0950 67.1 42.9 41 6.9 W | 263 9.9 WSW | 252 70.0 62.2
5/9/26 - 0940 66.9 38.7 35 5.9 W | 263 9.1 W | 276 70.0 62.2
5/9/26 - 0930 66.3 35.0 31 5.7 W | 266 7.5 W | 270 70.0 62.2
5/9/26 - 0920 66.0 36.5 34 4.7 WSW | 253 7.1 WSW | 258 70.0 62.2
5/9/26 - 0910 65.8 36.3 34 3.7 WSW | 253 5.0 WSW | 244 70.0 62.2
5/9/26 - 0900 66.6 34.2 30 3.1 W | 264 4.5 WSW | 256 70.0 62.2
5/9/26 - 0850 69.3 33.5 27 2.1 NNW | 348 4.7 W | 281 70.0 62.2
5/9/26 - 0840 69.0 33.3 27 1.4 ESE | 108 3.9 ESE | 103 69.8 62.2
5/9/26 - 0830 68.6 28.8 23 1.8 N | 10 8.0 NNE | 22 69.5 62.2
5/9/26 - 0820 68.1 28.2 22 0.5 SSW | 211 2.0 SSE | 156 68.4 62.2
5/9/26 - 0810 66.1 26.5 23 0.8 NNW | 347 2.9 NE | 38 67.7 62.2
Max 78.3 46.8 52 12.8 - 21.3 - 78.6 64.2
Avg 68.6 37.4 35 7.5 - 10.5 - - -
Min 63.0 2.1 6 0.5 - 2.0 - 64.6 62.2